Time;durP1;ratioP1;P1;durP2;ratioP2;P2;SDS_P1;SDS_P2;PMS_P1;PMS_P2;Temp;Humidity;BMP_temperature;BMP_pressure;BME280_temperature;BME280_humidity;BME280_pressure;Samples;Min_cycle;Max_cycle;Signal;HPM_P1;HPM_P2
2022/03/07 00:00:15;;;;;;;7.60;5.90;;;;;;;3.82;78.23;100751.78;4974603;28;20118;-80
2022/03/07 00:02:41;;;;;;;7.90;6.05;;;;;;;3.79;78.21;100746.59;4974585;28;20398;-79
2022/03/07 00:05:09;;;;;;;9.60;6.85;;;;;;;4.02;78.34;100774.69;4975680;28;20037;-79
2022/03/07 00:07:34;;;;;;;8.00;6.00;;;;;;;4.00;78.19;100765.06;4976686;28;20043;-79
2022/03/07 00:10:00;;;;;;;7.35;5.78;;;;;;;4.03;78.29;100770.22;4976584;28;20030;-79
2022/03/07 00:12:26;;;;;;;8.70;5.13;;;;;;;4.04;77.56;100764.81;4976079;28;20482;-80
2022/03/07 00:14:52;;;;;;;8.38;5.60;;;;;;;3.67;77.89;100720.63;4974963;28;20035;-79
2022/03/07 00:17:17;;;;;;;7.38;5.70;;;;;;;3.77;77.82;100752.94;4975055;28;20038;-79
2022/03/07 00:19:43;;;;;;;7.57;5.65;;;;;;;4.05;78.42;100761.22;4976271;28;20027;-79
2022/03/07 00:22:08;;;;;;;9.18;5.78;;;;;;;3.86;78.56;100736.50;4975864;28;20037;-79
2022/03/07 00:24:34;;;;;;;7.93;5.85;;;;;;;3.83;78.20;100732.22;4976094;28;20113;-79
2022/03/07 00:26:59;;;;;;;7.53;5.75;;;;;;;3.81;78.03;100743.88;4976162;28;20027;-79
2022/03/07 00:29:27;;;;;;;9.05;5.88;;;;;;;3.53;77.82;100703.69;4974527;28;20042;-79
2022/03/07 00:31:53;;;;;;;11.25;6.43;;;;;;;3.60;78.26;100713.06;4975509;28;20026;-79
2022/03/07 00:34:18;;;;;;;6.32;4.78;;;;;;;3.75;78.40;100728.25;4975845;28;20039;-79
2022/03/07 00:36:44;;;;;;;7.30;5.47;;;;;;;3.72;78.20;100720.41;4975538;28;20497;-79
2022/03/07 00:39:09;;;;;;;11.20;6.35;;;;;;;3.66;78.03;100715.41;4975809;28;20077;-79
2022/03/07 00:41:35;;;;;;;8.98;5.68;;;;;;;3.63;78.31;100716.44;4975821;28;20434;-79
2022/03/07 00:44:01;;;;;;;9.63;5.85;;;;;;;3.56;78.08;100704.38;4975449;28;20544;-79
2022/03/07 00:46:26;;;;;;;8.57;6.22;;;;;;;3.59;78.53;100706.03;4974370;28;20037;-79
2022/03/07 00:48:52;;;;;;;10.15;6.65;;;;;;;3.42;78.79;100682.13;4975358;28;20030;-79
2022/03/07 00:51:17;;;;;;;9.18;7.15;;;;;;;3.53;78.97;100696.56;4974930;28;20058;-78
2022/03/07 00:53:43;;;;;;;11.63;6.32;;;;;;;3.44;79.20;100675.78;4973862;28;20053;-80
2022/03/07 00:56:10;;;;;;;8.75;6.35;;;;;;;3.44;79.15;100673.13;4975035;28;20042;-80
2022/03/07 00:58:36;;;;;;;8.60;6.47;;;;;;;3.68;79.52;100721.50;4974079;28;20030;-79
2022/03/07 01:01:01;;;;;;;8.15;6.75;;;;;;;3.55;79.35;100691.16;4973840;28;20033;-79
2022/03/07 01:03:27;;;;;;;13.65;7.53;;;;;;;3.44;79.47;100674.91;4975116;28;20105;-79
2022/03/07 01:05:52;;;;;;;12.35;8.23;;;;;;;3.46;79.60;100683.66;4975025;28;20461;-79
2022/03/07 01:08:18;;;;;;;10.35;6.40;;;;;;;3.58;79.51;100702.50;4975303;28;20042;-77
2022/03/07 01:10:43;;;;;;;9.35;6.22;;;;;;;3.66;78.46;100697.66;4975194;28;20026;-78
2022/03/07 01:13:09;;;;;;;10.77;7.18;;;;;;;3.58;78.70;100714.94;4974847;28;20027;-77
2022/03/07 01:15:35;;;;;;;10.32;6.88;;;;;;;3.69;78.68;100712.59;4973189;28;20470;-77
2022/03/07 01:18:00;;;;;;;11.65;6.88;;;;;;;3.62;79.00;100708.53;4974792;28;20022;-77
2022/03/07 01:20:27;;;;;;;8.75;7.47;;;;;;;3.43;79.18;100683.81;4982463;28;20007;-78
2022/03/07 01:22:53;;;;;;;11.23;7.90;;;;;;;3.65;78.91;100719.00;4975364;28;20498;-78
2022/03/07 01:25:19;;;;;;;10.18;7.68;;;;;;;3.63;79.41;100708.47;4973071;28;20532;-79
2022/03/07 01:27:44;;;;;;;11.15;7.13;;;;;;;3.53;79.29;100711.66;4974228;28;20022;-78
2022/03/07 01:30:10;;;;;;;15.00;8.57;;;;;;;3.46;79.68;100688.97;4973928;28;20023;-78
2022/03/07 01:32:36;;;;;;;12.35;6.63;;;;;;;3.66;80.00;100712.75;4972802;28;20121;-78
2022/03/07 01:35:05;;;;;;;10.02;7.80;;;;;;;3.53;79.50;100698.38;4974315;28;20078;-78
2022/03/07 01:37:31;;;;;;;10.80;6.97;;;;;;;3.64;79.47;100709.34;4974266;28;20026;-78
2022/03/07 01:39:57;;;;;;;11.43;6.85;;;;;;;3.47;79.05;100664.13;4974337;28;20026;-78
2022/03/07 01:42:22;;;;;;;11.45;7.53;;;;;;;3.46;79.07;100673.88;4973852;28;20033;-77
2022/03/07 01:44:48;;;;;;;13.38;8.43;;;;;;;3.41;78.96;100669.75;4973818;28;20031;-79
2022/03/07 01:47:14;;;;;;;15.13;8.98;;;;;;;3.54;79.39;100700.09;4972801;28;20029;-77
2022/03/07 01:49:40;;;;;;;11.20;7.40;;;;;;;3.44;79.31;100682.88;4972432;28;20026;-76
2022/03/07 01:52:07;;;;;;;11.45;7.18;;;;;;;3.52;79.48;100678.03;4973742;28;20035;-78
2022/03/07 01:54:33;;;;;;;8.07;6.47;;;;;;;3.59;79.57;100706.03;4972492;28;20022;-77
2022/03/07 01:56:59;;;;;;;12.00;7.30;;;;;;;3.53;79.53;100706.34;4973811;28;20041;-77
2022/03/07 01:59:28;;;;;;;11.25;7.25;;;;;;;3.33;79.36;100677.28;4974061;28;20037;-77
2022/03/07 02:01:55;;;;;;;8.98;6.80;;;;;;;3.52;79.55;100693.97;4974191;28;20054;-77
2022/03/07 02:04:23;;;;;;;8.82;7.05;;;;;;;3.46;79.57;100695.16;4973260;28;20066;-77
2022/03/07 02:06:49;;;;;;;9.95;7.65;;;;;;;3.39;79.48;100672.50;4973780;28;20039;-77
2022/03/07 02:09:16;;;;;;;7.72;6.68;;;;;;;3.52;79.55;100688.66;4972943;28;20041;-77
2022/03/07 02:11:42;;;;;;;8.55;6.53;;;;;;;3.43;79.30;100673.19;4974025;28;20139;-77
2022/03/07 02:14:17;;;;;;;7.20;6.03;;;;;;;3.41;78.87;100670.63;4974092;28;20031;-77
2022/03/07 02:16:44;;;;;;;11.10;7.38;;;;;;;3.42;78.87;100687.44;4972255;28;20040;-77
2022/03/07 02:19:10;;;;;;;8.57;6.57;;;;;;;3.27;78.92;100684.59;4972271;28;20065;-77
2022/03/07 02:21:37;;;;;;;8.05;6.85;;;;;;;3.40;79.19;100714.06;4972573;28;20477;-77
2022/03/07 02:24:03;;;;;;;8.90;6.68;;;;;;;3.45;79.60;100720.03;4973517;28;20027;-77
2022/03/07 02:26:30;;;;;;;8.35;6.63;;;;;;;3.20;79.52;100688.53;4972868;28;20034;-77
2022/03/07 02:28:56;;;;;;;10.20;7.50;;;;;;;3.42;80.12;100717.53;4973470;28;20026;-77
2022/03/07 02:31:22;;;;;;;12.82;8.95;;;;;;;3.41;80.26;100701.66;4972213;28;20040;-77
2022/03/07 02:33:48;;;;;;;9.35;7.38;;;;;;;3.46;79.94;100704.91;4973490;28;20502;-77
2022/03/07 02:36:14;;;;;;;10.82;6.88;;;;;;;3.45;79.44;100700.56;4973277;28;20389;-77
2022/03/07 02:38:39;;;;;;;10.35;8.05;;;;;;;3.38;79.81;100707.13;4972415;28;20045;-77
2022/03/07 02:41:05;;;;;;;10.40;7.30;;;;;;;3.32;79.28;100688.81;4971909;28;20038;-77
2022/03/07 02:43:31;;;;;;;10.82;7.40;;;;;;;3.39;79.03;100703.53;4973531;28;20062;-77
2022/03/07 02:45:58;;;;;;;10.02;7.65;;;;;;;3.41;79.51;100709.63;4972477;28;20050;-77
2022/03/07 02:48:25;;;;;;;10.30;7.60;;;;;;;3.39;79.27;100706.19;4973699;28;20023;-77
2022/03/07 02:50:52;;;;;;;9.75;7.60;;;;;;;3.13;79.15;100681.78;4971955;28;20050;-77
2022/03/07 02:53:17;;;;;;;9.20;7.20;;;;;;;3.22;79.54;100707.91;4973685;28;20081;-77
2022/03/07 02:55:43;;;;;;;11.70;8.18;;;;;;;3.15;79.35;100679.91;4975811;28;20030;-77
2022/03/07 02:58:09;;;;;;;10.10;7.90;;;;;;;3.32;79.46;100715.41;4974896;28;20089;-77
2022/03/07 03:00:35;;;;;;;10.93;8.15;;;;;;;3.13;79.77;100686.22;4973550;28;20038;-77
2022/03/07 03:03:01;;;;;;;12.02;8.27;;;;;;;3.30;80.06;100719.00;4973409;28;20031;-78
2022/03/07 03:05:27;;;;;;;9.88;8.00;;;;;;;3.22;79.54;100699.06;4971824;28;20041;-77
2022/03/07 03:07:52;;;;;;;10.05;8.38;;;;;;;3.34;79.54;100721.50;4972127;28;20121;-78
2022/03/07 03:10:19;;;;;;;12.10;7.82;;;;;;;3.22;79.63;100702.59;4973457;28;20027;-78
2022/03/07 03:12:47;;;;;;;10.93;8.05;;;;;;;3.21;79.30;100705.34;4973284;28;20472;-78
2022/03/07 03:15:16;;;;;;;9.40;7.15;;;;;;;3.28;79.07;100712.91;4972939;28;20037;-78
2022/03/07 03:17:42;;;;;;;10.35;8.27;;;;;;;3.21;78.88;100694.69;4973163;28;20109;-78
2022/03/07 03:20:12;;;;;;;9.48;7.40;;;;;;;3.28;78.77;100718.22;4972233;28;20121;-77
2022/03/07 03:22:40;;;;;;;9.68;7.95;;;;;;;3.21;78.60;100700.84;4973098;28;20027;-76
2022/03/07 03:25:06;;;;;;;10.77;7.20;;;;;;;3.16;78.80;100697.56;4971411;28;20180;-77
2022/03/07 03:27:32;;;;;;;8.35;7.20;;;;;;;3.28;78.88;100710.25;4971589;28;20030;-77
2022/03/07 03:29:58;;;;;;;8.30;7.32;;;;;;;3.35;78.47;100720.56;4972806;28;20085;-77
2022/03/07 03:32:25;;;;;;;9.70;7.80;;;;;;;3.24;78.45;100708.66;4972676;28;20033;-77
2022/03/07 03:34:51;;;;;;;9.10;6.78;;;;;;;3.21;78.64;100694.69;4972849;28;20077;-77
2022/03/07 03:37:19;;;;;;;9.93;7.55;;;;;;;3.18;78.38;100710.81;4972713;28;20026;-78
2022/03/07 03:39:45;;;;;;;10.35;8.15;;;;;;;3.30;78.51;100729.63;4973825;28;20561;-78
2022/03/07 03:42:11;;;;;;;10.55;8.20;;;;;;;3.14;78.54;100694.16;4976271;28;20102;-78
2022/03/07 03:44:36;;;;;;;12.10;8.88;;;;;;;3.46;79.06;100720.88;4975051;28;20035;-78
2022/03/07 03:47:02;;;;;;;11.80;8.60;;;;;;;3.41;78.52;100697.19;4974655;28;20081;-78
2022/03/07 03:49:30;;;;;;;15.32;8.52;;;;;;;3.56;77.88;100711.50;4976444;28;20037;-79
2022/03/07 03:51:56;;;;;;;8.60;7.07;;;;;;;3.43;77.19;100689.13;4974557;28;20092;-79
2022/03/07 03:54:23;;;;;;;10.82;7.32;;;;;;;3.46;77.18;100699.59;4976362;28;20031;-80
2022/03/07 03:56:49;;;;;;;9.40;7.30;;;;;;;3.63;77.20;100718.25;4976051;28;20081;-83
2022/03/07 03:59:15;;;;;;;9.98;7.18;;;;;;;3.53;77.41;100711.66;4975155;28;20054;-80
2022/03/07 04:01:44;;;;;;;7.72;6.90;;;;;;;3.63;77.26;100726.22;4976847;28;20059;-81
2022/03/07 04:04:11;;;;;;;9.13;7.18;;;;;;;3.55;76.44;100699.13;4976019;28;20030;-79
2022/03/07 04:06:37;;;;;;;9.68;6.38;;;;;;;3.48;76.51;100698.63;4974945;28;20030;-80
2022/03/07 04:09:03;;;;;;;8.32;6.85;;;;;;;3.51;76.42;100714.41;4976359;28;20425;-80
2022/03/07 04:11:29;;;;;;;8.10;6.53;;;;;;;3.38;76.89;100675.22;4976080;28;20100;-80
2022/03/07 04:13:55;;;;;;;8.00;6.15;;;;;;;3.34;76.34;100684.28;4976505;28;20492;-80
2022/03/07 04:16:20;;;;;;;8.73;6.47;;;;;;;3.48;76.50;100719.88;4974830;28;20523;-81
2022/03/07 04:18:46;;;;;;;9.20;6.82;;;;;;;3.53;76.34;100722.28;4976639;28;20492;-81
2022/03/07 04:21:11;;;;;;;7.80;6.88;;;;;;;3.43;76.25;100699.75;4975456;28;20103;-82
2022/03/07 04:23:37;;;;;;;9.73;7.10;;;;;;;3.36;76.34;100687.75;4976943;28;20164;-78
2022/03/07 04:26:03;;;;;;;9.25;6.95;;;;;;;3.40;76.30;100705.25;4974431;28;20137;-78
2022/03/07 04:28:29;;;;;;;9.80;8.25;;;;;;;3.34;76.64;100700.22;4995342;28;20034;-80
2022/03/07 04:30:54;;;;;;;14.20;9.25;;;;;;;3.43;76.80;100697.97;4995054;28;20892;-80
2022/03/07 04:33:20;;;;;;;11.68;8.45;;;;;;;3.46;76.29;100700.47;4995786;28;20072;-81
2022/03/07 04:35:46;;;;;;;16.60;7.45;;;;;;;3.44;76.20;100720.97;4994801;28;20033;-81
2022/03/07 04:38:11;;;;;;;15.02;10.18;;;;;;;3.39;76.66;100700.88;4994798;28;20034;-79
2022/03/07 04:40:40;;;;;;;15.23;9.63;;;;;;;3.26;76.85;100682.03;5000668;28;20030;-83
2022/03/07 04:43:05;;;;;;;15.73;8.57;;;;;;;3.51;76.59;100692.28;4996306;28;20489;-85
2022/03/07 04:45:31;;;;;;;15.93;9.13;;;;;;;3.59;76.42;100716.66;4995262;28;20049;-79
2022/03/07 04:47:56;;;;;;;18.98;10.88;;;;;;;3.53;76.13;100714.31;4993856;28;20030;-81
2022/03/07 04:50:22;;;;;;;16.75;9.75;;;;;;;3.47;76.18;100712.84;4992828;28;20101;-82
2022/03/07 04:52:47;;;;;;;15.45;9.30;;;;;;;3.50;75.75;100709.16;4998061;28;20041;-81
2022/03/07 04:55:14;;;;;;;14.40;9.43;;;;;;;3.34;75.67;100690.47;4993288;28;20037;-82
2022/03/07 04:57:39;;;;;;;15.55;10.23;;;;;;;3.28;75.57;100691.63;4993170;28;20030;-80
2022/03/07 05:00:08;;;;;;;12.88;9.30;;;;;;;3.35;76.51;100725.88;4993248;28;20038;-81
2022/03/07 05:02:34;;;;;;;14.32;9.30;;;;;;;3.16;76.46;100686.94;4997828;28;20416;-81
2022/03/07 05:05:00;;;;;;;14.10;9.88;;;;;;;3.34;76.53;100721.50;4994500;28;20041;-81
2022/03/07 05:07:25;;;;;;;13.50;8.77;;;;;;;3.27;76.83;100694.41;4992752;28;20034;-82
2022/03/07 05:09:51;;;;;;;18.63;10.23;;;;;;;3.22;76.79;100686.63;4993769;28;20172;-81
2022/03/07 05:12:17;;;;;;;16.45;10.00;;;;;;;3.42;76.98;100737.94;4992214;28;20068;-82
2022/03/07 05:14:43;;;;;;;17.52;9.60;;;;;;;3.26;76.85;100704.16;4993700;28;20038;-80
2022/03/07 05:17:08;;;;;;;18.00;10.60;;;;;;;3.50;76.90;100730.44;4993680;28;20049;-80
2022/03/07 05:19:34;;;;;;;20.52;12.55;;;;;;;3.29;76.47;100688.06;4993631;28;20033;-80
2022/03/07 05:22:00;;;;;;;23.75;13.43;;;;;;;3.33;76.46;100685.25;4994629;28;20030;-80
2022/03/07 05:24:25;;;;;;;15.43;10.60;;;;;;;3.37;76.66;100708.06;4994240;28;20396;-80
2022/03/07 05:26:52;;;;;;;19.33;9.27;;;;;;;3.19;76.62;100676.16;4993878;28;20045;-80
2022/03/07 05:29:18;;;;;;;15.32;10.25;;;;;;;3.21;76.80;100682.25;4992339;28;20029;-81
2022/03/07 05:31:43;;;;;;;18.80;12.75;;;;;;;3.32;76.77;100697.66;4993461;28;20030;-82
2022/03/07 05:34:09;;;;;;;15.93;10.60;;;;;;;3.14;76.99;100682.66;4992689;28;20039;-81
2022/03/07 05:36:35;;;;;;;18.38;10.27;;;;;;;3.28;77.41;100694.31;4993428;28;20091;-80
2022/03/07 05:39:00;;;;;;;12.77;9.55;;;;;;;3.39;76.92;100691.13;4992197;28;20412;-80
2022/03/07 05:41:26;;;;;;;29.35;15.23;;;;;;;3.42;76.71;100690.97;4993619;28;20101;-80
2022/03/07 05:43:51;;;;;;;13.77;10.60;;;;;;;3.28;76.86;100658.88;4993645;28;20055;-81
2022/03/07 05:46:17;;;;;;;15.27;10.88;;;;;;;3.41;76.47;100675.94;4993449;28;20508;-81
2022/03/07 05:48:42;;;;;;;14.50;10.25;;;;;;;3.59;76.81;100701.56;4991689;28;20033;-82
2022/03/07 05:51:08;;;;;;;13.20;9.85;;;;;;;3.44;76.51;100670.47;4992898;28;20051;-82
2022/03/07 05:53:34;;;;;;;25.75;13.68;;;;;;;3.52;76.28;100689.53;4993387;28;20088;-82
2022/03/07 05:55:59;;;;;;;14.35;10.77;;;;;;;3.43;76.79;100675.84;4992259;28;20454;-81
2022/03/07 05:58:25;;;;;;;15.32;10.10;;;;;;;3.57;76.38;100678.66;4993430;28;20022;-81
2022/03/07 06:00:51;;;;;;;17.83;11.18;;;;;;;3.63;76.63;100670.38;4993192;28;20504;-82
2022/03/07 06:03:16;;;;;;;19.42;11.48;;;;;;;3.81;76.28;100669.41;4991423;28;20026;-81
2022/03/07 06:05:42;;;;;;;17.92;11.70;;;;;;;3.99;75.64;100695.03;4993279;28;20453;-81
2022/03/07 06:08:07;;;;;;;15.95;10.15;;;;;;;3.91;75.41;100662.66;4993743;28;20495;-81
2022/03/07 06:10:33;;;;;;;15.20;11.02;;;;;;;3.88;75.18;100662.81;4996892;28;20045;-82
2022/03/07 06:12:59;;;;;;;27.58;10.90;;;;;;;4.05;74.87;100688.50;4995480;28;20031;-82
2022/03/07 06:15:25;;;;;;;15.00;10.57;;;;;;;4.07;74.66;100692.81;4992884;28;20386;-81
2022/03/07 06:17:51;;;;;;;20.52;12.63;;;;;;;4.15;74.42;100711.03;4993461;28;20033;-81
2022/03/07 06:20:20;;;;;;;22.85;12.65;;;;;;;3.70;74.54;100661.13;4991489;28;20496;-81
2022/03/07 06:22:46;;;;;;;19.98;11.27;;;;;;;3.92;75.32;100714.91;4992961;28;20022;-81
2022/03/07 06:25:11;;;;;;;18.10;12.45;;;;;;;3.88;75.41;100707.19;4992326;28;20034;-81
2022/03/07 06:27:38;;;;;;;17.40;11.80;;;;;;;3.76;75.48;100680.25;4992599;28;20037;-81
2022/03/07 06:30:04;;;;;;;18.10;11.48;;;;;;;3.89;75.29;100688.47;4992556;28;20034;-82
2022/03/07 06:32:29;;;;;;;18.08;12.15;;;;;;;3.89;75.44;100672.50;4992927;28;20485;-83
2022/03/07 06:34:55;;;;;;;23.17;12.93;;;;;;;3.87;75.13;100674.41;4992742;28;20033;-82
2022/03/07 06:37:21;;;;;;;13.45;10.35;;;;;;;3.98;74.58;100693.28;4991603;28;20073;-82
2022/03/07 06:39:47;;;;;;;25.35;14.30;;;;;;;3.84;74.69;100671.91;4991571;28;20030;-80
2022/03/07 06:42:12;;;;;;;23.23;11.43;;;;;;;3.88;75.00;100673.47;4991018;28;20032;-82
2022/03/07 06:44:39;;;;;;;20.45;13.65;;;;;;;3.94;75.27;100665.16;4991122;28;20480;-81
2022/03/07 06:47:11;;;;;;;17.55;11.60;;;;;;;3.95;74.38;100655.34;4993014;28;20031;-81
2022/03/07 06:49:39;;;;;;;19.08;12.57;;;;;;;4.19;74.58;100681.50;4992684;28;20037;-81
2022/03/07 06:52:05;;;;;;;16.75;12.15;;;;;;;4.44;75.44;100691.66;4992756;28;20049;-81
2022/03/07 06:54:30;;;;;;;18.08;11.93;;;;;;;4.59;75.63;100680.16;4992582;28;20097;-82
2022/03/07 06:56:56;;;;;;;15.13;11.93;;;;;;;4.81;74.84;100671.81;4994037;28;20081;-81
2022/03/07 06:59:21;;;;;;;16.05;11.75;;;;;;;4.89;73.50;100698.91;4993516;28;20452;-81
2022/03/07 07:01:47;;;;;;;19.63;12.68;;;;;;;4.84;72.79;100664.50;4993330;28;20019;-83
2022/03/07 07:04:12;;;;;;;19.60;12.88;;;;;;;5.06;72.83;100680.13;4993017;28;20334;-81
2022/03/07 07:06:38;;;;;;;18.92;12.60;;;;;;;5.09;72.13;100655.97;4993013;28;20038;-81
2022/03/07 07:09:04;;;;;;;19.10;12.90;;;;;;;5.08;70.97;100645.38;4992934;28;20018;-81
2022/03/07 07:11:30;;;;;;;18.35;11.55;;;;;;;5.15;71.11;100663.59;4993493;28;20041;-82
2022/03/07 07:13:55;;;;;;;19.38;12.52;;;;;;;5.19;70.89;100670.50;4996537;28;20033;-83
2022/03/07 07:16:21;;;;;;;27.63;17.80;;;;;;;5.07;70.67;100643.69;4996590;28;20044;-81
2022/03/07 07:18:46;;;;;;;15.75;11.65;;;;;;;5.06;70.81;100649.94;4995527;28;20026;-81
2022/03/07 07:21:12;;;;;;;17.10;12.15;;;;;;;5.04;70.40;100643.88;4996264;28;20018;-81
2022/03/07 07:23:38;;;;;;;20.10;13.82;;;;;;;5.06;71.10;100637.47;4996666;28;20023;-80
2022/03/07 07:26:05;;;;;;;19.17;12.38;;;;;;;5.18;70.53;100644.75;4995602;28;20026;-81
2022/03/07 07:28:31;;;;;;;19.30;11.82;;;;;;;5.37;70.53;100669.41;4996479;28;20030;-81
2022/03/07 07:30:56;;;;;;;22.75;13.75;;;;;;;5.45;70.23;100666.25;4995124;28;20042;-82
2022/03/07 07:33:22;;;;;;;15.38;10.95;;;;;;;5.43;69.93;100658.38;4995270;28;20552;-81
2022/03/07 07:35:48;;;;;;;14.85;10.52;;;;;;;5.37;69.42;100664.06;4996955;28;20105;-81
2022/03/07 07:38:13;;;;;;;17.75;11.55;;;;;;;5.28;69.41;100656.59;4996280;28;20026;-82
2022/03/07 07:40:43;;;;;;;22.13;12.95;;;;;;;5.21;69.54;100636.59;4996036;28;20114;-81
2022/03/07 07:43:08;;;;;;;16.00;10.38;;;;;;;5.35;69.82;100654.44;4995184;28;20026;-82
2022/03/07 07:45:34;;;;;;;15.40;11.88;;;;;;;5.37;69.82;100658.72;4996140;28;20122;-81
2022/03/07 07:47:59;;;;;;;16.05;10.98;;;;;;;5.43;70.33;100658.38;5008560;28;20030;-83
2022/03/07 07:50:26;;;;;;;16.15;11.50;;;;;;;5.60;69.78;100669.81;4995765;28;20073;-81
2022/03/07 07:52:52;;;;;;;17.20;11.55;;;;;;;5.56;69.14;100665.63;4995462;28;20381;-81
2022/03/07 07:55:18;;;;;;;18.75;11.40;;;;;;;5.56;68.88;100649.63;4978776;28;20029;-82
2022/03/07 07:57:43;;;;;;;24.35;13.70;;;;;;;5.59;68.63;100636.09;4997112;28;20037;-82
2022/03/07 08:00:10;;;;;;;19.67;13.13;;;;;;;5.85;68.82;100676.28;4994931;28;20092;-80
2022/03/07 08:02:36;;;;;;;17.55;12.68;;;;;;;5.98;68.23;100681.72;4994934;28;20018;-81
2022/03/07 08:05:04;;;;;;;19.90;13.77;;;;;;;6.06;68.42;100663.41;4995944;28;20029;-80
2022/03/07 08:07:30;;;;;;;17.92;12.20;;;;;;;6.11;67.69;100653.31;4994859;28;20104;-81
2022/03/07 08:09:56;;;;;;;20.17;14.02;;;;;;;6.22;66.94;100674.88;4995966;28;20508;-81
2022/03/07 08:12:21;;;;;;;21.15;14.90;;;;;;;5.91;67.04;100643.00;4994121;28;20065;-81
2022/03/07 08:14:47;;;;;;;17.20;12.02;;;;;;;6.28;66.73;100668.28;4995126;28;20050;-81
2022/03/07 08:17:14;;;;;;;16.65;11.88;;;;;;;6.13;67.01;100638.06;4995388;28;20086;-82
2022/03/07 08:19:40;;;;;;;19.95;13.30;;;;;;;6.16;66.59;100643.22;4995476;28;20508;-81
2022/03/07 08:22:05;;;;;;;20.58;13.65;;;;;;;6.16;66.81;100648.53;4993649;28;20105;-80
2022/03/07 08:24:31;;;;;;;18.42;12.05;;;;;;;6.15;67.26;100640.63;4994320;28;20038;-81
2022/03/07 08:26:57;;;;;;;26.23;14.35;;;;;;;5.82;67.37;100654.22;4995331;28;20053;-81
2022/03/07 08:29:23;;;;;;;24.63;14.80;;;;;;;5.84;67.62;100631.81;4995173;28;20026;-81
2022/03/07 08:31:49;;;;;;;21.33;13.35;;;;;;;5.98;67.61;100668.38;4995319;28;20053;-81
2022/03/07 08:34:15;;;;;;;25.13;14.13;;;;;;;6.07;67.56;100662.47;4993700;28;20034;-81
2022/03/07 08:36:41;;;;;;;29.75;13.68;;;;;;;6.23;67.17;100665.91;4993774;28;20026;-81
2022/03/07 08:39:06;;;;;;;26.25;13.32;;;;;;;6.12;66.83;100636.34;4994633;28;20104;-82
2022/03/07 08:41:34;;;;;;;17.40;12.10;;;;;;;6.17;67.11;100668.09;4993198;28;20025;-80
2022/03/07 08:43:59;;;;;;;18.83;12.63;;;;;;;6.03;67.26;100643.13;4994489;28;20081;-81
2022/03/07 08:46:25;;;;;;;18.88;13.27;;;;;;;6.35;67.15;100670.47;4994287;28;20493;-82
2022/03/07 08:48:51;;;;;;;21.98;13.07;;;;;;;6.67;66.87;100680.91;4994654;28;20030;-83
2022/03/07 08:51:17;;;;;;;20.50;13.02;;;;;;;6.40;65.69;100673.69;4994422;28;20175;-81
2022/03/07 08:53:43;;;;;;;20.65;13.25;;;;;;;6.60;65.94;100687.63;4994415;28;20419;-82
2022/03/07 08:56:08;;;;;;;16.90;12.15;;;;;;;6.36;65.37;100677.50;4995189;28;20064;-82
2022/03/07 08:58:34;;;;;;;15.45;11.55;;;;;;;6.09;65.33;100654.34;4993355;28;20030;-81
2022/03/07 09:00:59;;;;;;;17.52;12.23;;;;;;;6.22;65.84;100661.50;4992827;28;20488;-82
2022/03/07 09:03:25;;;;;;;20.90;14.77;;;;;;;6.41;65.69;100647.84;4993353;28;20548;-81
2022/03/07 09:05:51;;;;;;;16.70;12.30;;;;;;;6.53;66.23;100647.06;4994303;28;20057;-80
2022/03/07 09:08:17;;;;;;;20.13;13.95;;;;;;;6.79;65.03;100648.88;4994217;28;20057;-81
2022/03/07 09:10:42;;;;;;;18.45;13.82;;;;;;;6.98;64.75;100645.88;4994088;28;20481;-81
2022/03/07 09:13:08;;;;;;;21.38;13.23;;;;;;;7.07;63.92;100661.31;4993929;28;20081;-81
2022/03/07 09:15:34;;;;;;;23.80;16.38;;;;;;;6.80;64.75;100623.03;4994670;28;20032;-82
2022/03/07 09:18:00;;;;;;;21.05;14.88;;;;;;;7.03;64.74;100644.59;4994063;28;20428;-81
2022/03/07 09:20:26;;;;;;;19.25;13.45;;;;;;;6.97;64.32;100631.63;4995645;28;20030;-82
2022/03/07 09:22:52;;;;;;;19.67;12.77;;;;;;;7.01;64.20;100667.06;5007200;28;20013;-82
2022/03/07 09:25:18;;;;;;;21.00;12.35;;;;;;;7.01;64.37;100626.94;5004465;28;20204;-81
2022/03/07 09:27:44;;;;;;;20.42;13.60;;;;;;;7.02;64.48;100623.31;4994764;28;20030;-82
2022/03/07 09:30:12;;;;;;;32.90;13.02;;;;;;;7.27;64.43;100638.59;4995536;28;20034;-81
2022/03/07 09:32:38;;;;;;;15.55;11.60;;;;;;;7.17;63.35;100627.66;4992593;28;20113;-82
2022/03/07 09:35:04;;;;;;;21.73;13.57;;;;;;;7.09;63.14;100613.94;4994244;28;20053;-80
2022/03/07 09:37:30;;;;;;;24.58;13.00;;;;;;;6.87;63.85;100633.22;4993119;28;20093;-80
2022/03/07 09:39:56;;;;;;;26.80;14.70;;;;;;;7.18;64.39;100652.56;4992555;28;20034;-81
2022/03/07 09:42:21;;;;;;;25.33;13.23;;;;;;;7.14;64.20;100641.22;4991954;28;20098;-80
2022/03/07 09:44:48;;;;;;;22.77;13.25;;;;;;;7.16;64.56;100636.63;4992726;28;20109;-83
2022/03/07 09:47:14;;;;;;;20.27;10.18;;;;;;;7.34;63.39;100651.41;4992711;28;20045;-80
2022/03/07 09:49:40;;;;;;;15.57;10.05;;;;;;;7.27;63.14;100628.75;4993772;28;20103;-82
2022/03/07 09:52:06;;;;;;;13.95;9.65;;;;;;;7.18;63.85;100632.03;4992277;28;20130;-81
2022/03/07 09:54:32;;;;;;;26.90;10.85;;;;;;;7.44;63.69;100651.66;4993768;28;20030;-81
2022/03/07 09:56:57;;;;;;;12.68;9.15;;;;;;;7.36;62.99;100646.84;4993934;28;20026;-82
2022/03/07 09:59:24;;;;;;;13.32;9.15;;;;;;;7.13;64.08;100635.00;4993808;28;20104;-81
2022/03/07 10:02:04;;;;;;;29.52;10.40;;;;;;;7.32;63.84;100642.66;4992858;28;20064;-81
2022/03/07 10:04:31;;;;;;;17.38;11.48;;;;;;;7.50;63.21;100651.25;4992901;28;20432;-81
2022/03/07 10:07:02;;;;;;;14.30;9.82;;;;;;;7.50;63.17;100625.34;4992860;28;20041;-83
2022/03/07 10:09:29;;;;;;;13.82;11.30;;;;;;;7.63;62.81;100623.53;4993919;28;20405;-82
2022/03/07 10:12:00;;;;;;;14.48;11.35;;;;;;;7.80;62.45;100650.97;4993203;28;20374;-82
2022/03/07 10:14:42;;;;;;;13.82;10.18;;;;;;;7.67;62.55;100659.81;4991833;28;20101;-81
2022/03/07 10:17:20;;;;;;;18.90;9.93;;;;;;;7.67;62.75;100665.19;4992923;28;20034;-80
2022/03/07 10:19:46;;;;;;;19.55;10.82;;;;;;;7.72;62.83;100654.16;4991862;28;20038;-80
2022/03/07 10:22:19;;;;;;;29.35;9.88;;;;;;;7.84;62.24;100644.41;4991403;28;20038;-81
2022/03/07 10:24:45;;;;;;;18.45;10.90;;;;;;;7.77;61.64;100621.75;4993587;28;20485;-80
2022/03/07 10:27:26;;;;;;;16.30;11.30;;;;;;;7.86;61.80;100615.75;4991737;28;20040;-81
2022/03/07 10:29:51;;;;;;;25.00;11.70;;;;;;;8.00;61.44;100618.28;4992791;28;20026;-80
2022/03/07 10:32:18;;;;;;;28.92;11.05;;;;;;;8.05;60.66;100606.28;4992624;28;20037;-79
2022/03/07 10:34:44;;;;;;;14.63;10.18;;;;;;;8.12;60.72;100618.28;4993523;28;20425;-81
2022/03/07 10:37:11;;;;;;;15.98;9.60;;;;;;;8.08;60.59;100621.25;4992604;28;20038;-80
2022/03/07 10:39:38;;;;;;;30.52;10.88;;;;;;;8.20;60.61;100625.75;4991998;28;20033;-81
2022/03/07 10:42:04;;;;;;;26.05;10.25;;;;;;;8.19;60.01;100619.53;4992532;28;20022;-80
2022/03/07 10:44:35;;;;;;;14.57;9.50;;;;;;;8.16;60.46;100632.31;4992815;28;20030;-80
2022/03/07 10:47:17;;;;;;;13.57;10.48;;;;;;;8.10;60.55;100635.44;4993288;28;20556;-80
2022/03/07 10:50:02;;;;;;;44.73;11.93;;;;;;;8.00;59.93;100645.06;4996816;28;20022;-80
2022/03/07 10:52:41;;;;;;;24.83;9.60;;;;;;;8.01;60.77;100642.25;4996422;28;20046;-79
2022/03/07 10:55:10;;;;;;;21.35;11.63;;;;;;;7.92;59.92;100615.31;4996618;28;20485;-81
2022/03/07 10:57:41;;;;;;;12.55;9.60;;;;;;;7.90;60.20;100607.38;4999649;28;20026;-79
2022/03/07 11:00:12;;;;;;;28.88;10.85;;;;;;;8.05;59.98;100637.56;5013003;28;20037;-81
2022/03/07 11:02:42;;;;;;;17.13;10.63;;;;;;;7.86;60.38;100615.75;4999956;28;20026;-80
2022/03/07 11:05:10;;;;;;;20.80;10.77;;;;;;;7.71;60.74;100617.66;4996923;28;20038;-81
2022/03/07 11:07:41;;;;;;;39.17;11.68;;;;;;;7.57;60.91;100607.91;4997413;28;20034;-81
2022/03/07 11:10:08;;;;;;;12.38;9.55;;;;;;;7.57;61.08;100599.88;4995307;28;20065;-81
2022/03/07 11:12:35;;;;;;;19.50;10.48;;;;;;;7.48;60.65;100594.31;4997033;28;20084;-81
2022/03/07 11:15:08;;;;;;;49.05;14.45;;;;;;;7.54;60.43;100616.16;4995020;28;20049;-82
2022/03/07 11:17:37;;;;;;;40.50;10.50;;;;;;;7.38;60.87;100614.63;4996145;28;20031;-81